sensor_id;sensor_type;location;lat;lon;timestamp;pressure;altitude;pressure_sealevel;temperature;humidity
59055;BME280;44845;51.444;7.460;2024-01-07T00:00:41;99662.44;;;2.86;88.77
59055;BME280;44845;51.444;7.460;2024-01-07T00:03:06;99659.84;;;2.86;88.67
59055;BME280;44845;51.444;7.460;2024-01-07T00:05:31;99658.22;;;2.90;89.06
59055;BME280;44845;51.444;7.460;2024-01-07T00:07:57;99657.72;;;2.66;88.49
59055;BME280;44845;51.444;7.460;2024-01-07T00:10:22;99668.69;;;2.54;88.01
59055;BME280;44845;51.444;7.460;2024-01-07T00:12:47;99658.53;;;2.64;88.53
59055;BME280;44845;51.444;7.460;2024-01-07T00:15:15;99668.97;;;2.67;88.93
59055;BME280;44845;51.444;7.460;2024-01-07T00:17:40;99672.88;;;2.49;88.84
59055;BME280;44845;51.444;7.460;2024-01-07T00:20:06;99677.25;;;2.50;89.39
59055;BME280;44845;51.444;7.460;2024-01-07T00:22:31;99671.50;;;2.25;89.56
59055;BME280;44845;51.444;7.460;2024-01-07T00:24:57;99685.25;;;2.24;90.02
59055;BME280;44845;51.444;7.460;2024-01-07T00:27:22;99680.97;;;2.24;90.74
59055;BME280;44845;51.444;7.460;2024-01-07T00:29:47;99678.91;;;2.48;90.69
59055;BME280;44845;51.444;7.460;2024-01-07T00:32:13;99675.28;;;2.40;89.52
59055;BME280;44845;51.444;7.460;2024-01-07T00:34:38;99677.28;;;2.53;90.78
59055;BME280;44845;51.444;7.460;2024-01-07T00:37:04;99681.97;;;2.31;91.36
59055;BME280;44845;51.444;7.460;2024-01-07T00:39:29;99685.94;;;2.15;91.33
59055;BME280;44845;51.444;7.460;2024-01-07T00:41:54;99683.94;;;2.05;91.93
59055;BME280;44845;51.444;7.460;2024-01-07T00:44:20;99697.56;;;1.97;92.61
59055;BME280;44845;51.444;7.460;2024-01-07T00:46:45;99696.41;;;1.84;93.02
59055;BME280;44845;51.444;7.460;2024-01-07T00:49:10;99693.06;;;1.88;93.32
59055;BME280;44845;51.444;7.460;2024-01-07T00:51:36;99707.13;;;2.00;91.53
59055;BME280;44845;51.444;7.460;2024-01-07T00:54:01;99702.34;;;2.16;90.82
59055;BME280;44845;51.444;7.460;2024-01-07T00:56:27;99705.81;;;2.18;90.63
59055;BME280;44845;51.444;7.460;2024-01-07T00:58:52;99707.97;;;1.99;90.65
59055;BME280;44845;51.444;7.460;2024-01-07T01:01:18;99708.94;;;2.04;90.32
59055;BME280;44845;51.444;7.460;2024-01-07T01:03:43;99708.66;;;1.91;90.47
59055;BME280;44845;51.444;7.460;2024-01-07T01:06:09;99706.34;;;2.04;90.78
59055;BME280;44845;51.444;7.460;2024-01-07T01:08:34;99714.38;;;2.15;89.37
59055;BME280;44845;51.444;7.460;2024-01-07T01:10:59;99708.34;;;2.14;89.09
59055;BME280;44845;51.444;7.460;2024-01-07T01:13:25;99718.75;;;1.82;89.93
59055;BME280;44845;51.444;7.460;2024-01-07T01:15:50;99714.50;;;2.20;90.46
59055;BME280;44845;51.444;7.460;2024-01-07T01:18:15;99716.59;;;2.36;89.86
59055;BME280;44845;51.444;7.460;2024-01-07T01:20:41;99712.91;;;2.64;89.57
59055;BME280;44845;51.444;7.460;2024-01-07T01:23:06;99723.69;;;2.44;88.36
59055;BME280;44845;51.444;7.460;2024-01-07T01:25:31;99726.75;;;2.66;88.12
59055;BME280;44845;51.444;7.460;2024-01-07T01:27:57;99721.03;;;2.79;87.36
59055;BME280;44845;51.444;7.460;2024-01-07T01:30:22;99733.22;;;2.45;86.72
59055;BME280;44845;51.444;7.460;2024-01-07T01:32:47;99734.66;;;1.98;88.21
59055;BME280;44845;51.444;7.460;2024-01-07T01:35:13;99743.19;;;1.94;88.67
59055;BME280;44845;51.444;7.460;2024-01-07T01:37:38;99743.00;;;1.87;88.82
59055;BME280;44845;51.444;7.460;2024-01-07T01:40:04;99742.19;;;1.88;89.96
59055;BME280;44845;51.444;7.460;2024-01-07T01:42:29;99749.31;;;1.97;89.94
59055;BME280;44845;51.444;7.460;2024-01-07T01:44:55;99741.72;;;1.70;89.25
59055;BME280;44845;51.444;7.460;2024-01-07T01:47:24;99743.00;;;1.87;89.52
59055;BME280;44845;51.444;7.460;2024-01-07T01:49:50;99749.72;;;2.13;89.22
59055;BME280;44845;51.444;7.460;2024-01-07T01:52:15;99753.31;;;1.84;88.56
59055;BME280;44845;51.444;7.460;2024-01-07T01:54:40;99754.19;;;1.52;90.03
59055;BME280;44845;51.444;7.460;2024-01-07T01:57:08;99760.88;;;1.45;90.85
59055;BME280;44845;51.444;7.460;2024-01-07T01:59:34;99767.38;;;1.62;90.93
59055;BME280;44845;51.444;7.460;2024-01-07T02:02:00;99767.50;;;1.68;91.38
59055;BME280;44845;51.444;7.460;2024-01-07T02:04:26;99763.56;;;1.49;90.93
59055;BME280;44845;51.444;7.460;2024-01-07T02:06:52;99782.88;;;1.31;91.02
59055;BME280;44845;51.444;7.460;2024-01-07T02:09:17;99769.56;;;1.17;91.81
59055;BME280;44845;51.444;7.460;2024-01-07T02:11:42;99775.78;;;1.23;92.64
59055;BME280;44845;51.444;7.460;2024-01-07T02:14:08;99777.28;;;1.15;93.10
59055;BME280;44845;51.444;7.460;2024-01-07T02:16:33;99780.78;;;1.17;92.57
59055;BME280;44845;51.444;7.460;2024-01-07T02:18:58;99774.56;;;1.41;92.65
59055;BME280;44845;51.444;7.460;2024-01-07T02:21:24;99777.97;;;1.40;91.13
59055;BME280;44845;51.444;7.460;2024-01-07T02:23:49;99771.44;;;1.53;90.91
59055;BME280;44845;51.444;7.460;2024-01-07T02:26:14;99776.84;;;1.63;90.22
59055;BME280;44845;51.444;7.460;2024-01-07T02:28:41;99782.22;;;1.69;90.56
59055;BME280;44845;51.444;7.460;2024-01-07T02:31:06;99785.75;;;1.73;90.84
59055;BME280;44845;51.444;7.460;2024-01-07T02:33:33;99790.38;;;1.85;89.81
59055;BME280;44845;51.444;7.460;2024-01-07T02:35:58;99790.16;;;1.44;89.95
59055;BME280;44845;51.444;7.460;2024-01-07T02:38:23;99795.63;;;1.25;91.93
59055;BME280;44845;51.444;7.460;2024-01-07T02:40:49;99792.31;;;1.30;91.96
59055;BME280;44845;51.444;7.460;2024-01-07T02:43:14;99788.81;;;1.28;92.21
59055;BME280;44845;51.444;7.460;2024-01-07T02:45:39;99793.16;;;1.29;91.66
59055;BME280;44845;51.444;7.460;2024-01-07T02:48:05;99799.22;;;1.00;92.51
59055;BME280;44845;51.444;7.460;2024-01-07T02:50:32;99802.91;;;1.09;92.88
59055;BME280;44845;51.444;7.460;2024-01-07T02:52:57;99804.56;;;1.07;92.60
59055;BME280;44845;51.444;7.460;2024-01-07T02:55:22;99810.22;;;1.22;91.94
59055;BME280;44845;51.444;7.460;2024-01-07T02:57:48;99804.81;;;1.45;91.32
59055;BME280;44845;51.444;7.460;2024-01-07T03:00:13;99821.47;;;1.25;90.56
59055;BME280;44845;51.444;7.460;2024-01-07T03:02:39;99811.88;;;1.51;91.04
59055;BME280;44845;51.444;7.460;2024-01-07T03:05:04;99814.00;;;1.35;90.59
59055;BME280;44845;51.444;7.460;2024-01-07T03:07:29;99812.81;;;1.55;90.13
59055;BME280;44845;51.444;7.460;2024-01-07T03:09:55;99814.69;;;1.59;89.60
59055;BME280;44845;51.444;7.460;2024-01-07T03:12:20;99812.91;;;1.58;89.58
59055;BME280;44845;51.444;7.460;2024-01-07T03:14:46;99821.25;;;1.78;89.11
59055;BME280;44845;51.444;7.460;2024-01-07T03:17:11;99821.34;;;1.82;88.26
59055;BME280;44845;51.444;7.460;2024-01-07T03:19:39;99820.03;;;1.98;89.34
59055;BME280;44845;51.444;7.460;2024-01-07T03:22:04;99822.84;;;2.07;87.21
59055;BME280;44845;51.444;7.460;2024-01-07T03:24:32;99817.78;;;2.10;87.49
59055;BME280;44845;51.444;7.460;2024-01-07T03:26:57;99818.03;;;1.87;87.76
59055;BME280;44845;51.444;7.460;2024-01-07T03:29:23;99817.59;;;2.04;87.51
59055;BME280;44845;51.444;7.460;2024-01-07T03:31:48;99819.13;;;1.96;87.59
59055;BME280;44845;51.444;7.460;2024-01-07T03:34:13;99824.75;;;1.80;87.37
59055;BME280;44845;51.444;7.460;2024-01-07T03:36:39;99826.97;;;1.66;88.14
59055;BME280;44845;51.444;7.460;2024-01-07T03:39:04;99820.16;;;1.70;89.00
59055;BME280;44845;51.444;7.460;2024-01-07T03:41:29;99823.31;;;1.92;88.10
59055;BME280;44845;51.444;7.460;2024-01-07T03:43:55;99828.97;;;1.77;87.49
59055;BME280;44845;51.444;7.460;2024-01-07T03:46:21;99839.38;;;1.80;87.23
59055;BME280;44845;51.444;7.460;2024-01-07T03:48:47;99842.28;;;1.60;87.53
59055;BME280;44845;51.444;7.460;2024-01-07T03:51:12;99845.53;;;1.53;88.75
59055;BME280;44845;51.444;7.460;2024-01-07T03:53:37;99844.50;;;1.48;87.88
59055;BME280;44845;51.444;7.460;2024-01-07T03:56:03;99848.69;;;1.42;89.24
59055;BME280;44845;51.444;7.460;2024-01-07T03:58:28;99846.38;;;1.52;89.29
59055;BME280;44845;51.444;7.460;2024-01-07T04:00:54;99844.72;;;1.25;88.45
59055;BME280;44845;51.444;7.460;2024-01-07T04:03:19;99851.56;;;1.22;89.53
59055;BME280;44845;51.444;7.460;2024-01-07T04:05:44;99850.31;;;1.11;89.97
59055;BME280;44845;51.444;7.460;2024-01-07T04:08:12;99856.47;;;0.87;90.38
59055;BME280;44845;51.444;7.460;2024-01-07T04:10:40;99852.91;;;1.11;90.89
59055;BME280;44845;51.444;7.460;2024-01-07T04:13:06;99857.78;;;1.29;90.37
59055;BME280;44845;51.444;7.460;2024-01-07T04:15:31;99866.84;;;1.16;89.78
59055;BME280;44845;51.444;7.460;2024-01-07T04:17:57;99863.91;;;1.33;88.70
59055;BME280;44845;51.444;7.460;2024-01-07T04:20:25;99872.00;;;1.16;90.26
59055;BME280;44845;51.444;7.460;2024-01-07T04:22:50;99868.66;;;1.19;89.52
59055;BME280;44845;51.444;7.460;2024-01-07T04:25:16;99873.78;;;1.17;88.68
59055;BME280;44845;51.444;7.460;2024-01-07T04:27:41;99872.72;;;0.83;90.75
59055;BME280;44845;51.444;7.460;2024-01-07T04:30:07;99871.34;;;0.94;91.12
59055;BME280;44845;51.444;7.460;2024-01-07T04:32:32;99879.53;;;0.81;91.05
59055;BME280;44845;51.444;7.460;2024-01-07T04:34:58;99876.38;;;0.89;90.98
59055;BME280;44845;51.444;7.460;2024-01-07T04:37:24;99880.84;;;0.95;90.76
59055;BME280;44845;51.444;7.460;2024-01-07T04:39:49;99877.28;;;0.92;90.50
59055;BME280;44845;51.444;7.460;2024-01-07T04:42:15;99875.72;;;0.97;90.96
59055;BME280;44845;51.444;7.460;2024-01-07T04:44:40;99887.63;;;0.92;90.88
59055;BME280;44845;51.444;7.460;2024-01-07T04:47:23;99893.00;;;0.98;90.77
59055;BME280;44845;51.444;7.460;2024-01-07T04:49:48;99899.91;;;0.99;90.47
59055;BME280;44845;51.444;7.460;2024-01-07T04:52:14;99897.28;;;0.97;90.84
59055;BME280;44845;51.444;7.460;2024-01-07T04:54:39;99893.81;;;1.25;91.54
59055;BME280;44845;51.444;7.460;2024-01-07T04:57:04;99899.72;;;1.20;90.17
59055;BME280;44845;51.444;7.460;2024-01-07T04:59:29;99896.28;;;1.21;89.00
59055;BME280;44845;51.444;7.460;2024-01-07T05:01:55;99907.22;;;1.12;89.44
59055;BME280;44845;51.444;7.460;2024-01-07T05:04:20;99904.88;;;1.20;88.75
59055;BME280;44845;51.444;7.460;2024-01-07T05:06:45;99907.53;;;1.23;88.39
59055;BME280;44845;51.444;7.460;2024-01-07T05:09:11;99906.38;;;1.14;88.05
59055;BME280;44845;51.444;7.460;2024-01-07T05:11:39;99917.56;;;0.86;89.04
59055;BME280;44845;51.444;7.460;2024-01-07T05:14:05;99914.69;;;0.77;89.63
59055;BME280;44845;51.444;7.460;2024-01-07T05:16:30;99922.91;;;0.65;90.13
59055;BME280;44845;51.444;7.460;2024-01-07T05:18:55;99928.59;;;0.81;90.38
59055;BME280;44845;51.444;7.460;2024-01-07T05:21:21;99927.75;;;0.82;89.96
59055;BME280;44845;51.444;7.460;2024-01-07T05:23:46;99929.72;;;0.89;89.30
59055;BME280;44845;51.444;7.460;2024-01-07T05:26:11;99926.22;;;0.87;88.65
59055;BME280;44845;51.444;7.460;2024-01-07T05:28:37;99936.97;;;1.01;89.17
59055;BME280;44845;51.444;7.460;2024-01-07T05:31:03;99933.31;;;0.94;89.91
59055;BME280;44845;51.444;7.460;2024-01-07T05:33:28;99937.75;;;0.98;89.09
59055;BME280;44845;51.444;7.460;2024-01-07T05:35:53;99940.59;;;0.78;89.38
59055;BME280;44845;51.444;7.460;2024-01-07T05:38:19;99949.28;;;0.82;89.80
59055;BME280;44845;51.444;7.460;2024-01-07T05:40:44;99953.53;;;0.80;89.09
59055;BME280;44845;51.444;7.460;2024-01-07T05:43:09;99950.19;;;0.83;89.71
59055;BME280;44845;51.444;7.460;2024-01-07T05:45:35;99950.19;;;0.83;89.76
59055;BME280;44845;51.444;7.460;2024-01-07T05:48:00;99949.91;;;1.01;89.18
59055;BME280;44845;51.444;7.460;2024-01-07T05:50:25;99952.16;;;0.90;89.14
59055;BME280;44845;51.444;7.460;2024-01-07T05:52:51;99957.69;;;0.76;89.89
59055;BME280;44845;51.444;7.460;2024-01-07T05:55:16;99964.78;;;0.82;89.44
59055;BME280;44845;51.444;7.460;2024-01-07T05:57:43;99968.41;;;0.87;90.31
59055;BME280;44845;51.444;7.460;2024-01-07T06:00:08;99975.47;;;0.42;91.19
59055;BME280;44845;51.444;7.460;2024-01-07T06:02:36;99973.41;;;0.57;91.34
59055;BME280;44845;51.444;7.460;2024-01-07T06:05:02;99972.19;;;0.71;91.44
59055;BME280;44845;51.444;7.460;2024-01-07T06:07:28;99974.69;;;0.70;90.34
59055;BME280;44845;51.444;7.460;2024-01-07T06:09:53;99986.56;;;0.64;89.76
59055;BME280;44845;51.444;7.460;2024-01-07T06:12:18;99982.47;;;0.45;91.29
59055;BME280;44845;51.444;7.460;2024-01-07T06:14:44;99992.66;;;0.42;91.98
59055;BME280;44845;51.444;7.460;2024-01-07T06:17:09;99996.13;;;0.67;91.21
59055;BME280;44845;51.444;7.460;2024-01-07T06:19:34;99994.69;;;0.75;91.25
59055;BME280;44845;51.444;7.460;2024-01-07T06:22:00;99989.09;;;0.38;90.71
59055;BME280;44845;51.444;7.460;2024-01-07T06:24:25;99990.75;;;0.36;92.20
59055;BME280;44845;51.444;7.460;2024-01-07T06:26:50;100004.56;;;0.37;92.46
59055;BME280;44845;51.444;7.460;2024-01-07T06:29:16;100010.84;;;0.45;92.25
59055;BME280;44845;51.444;7.460;2024-01-07T06:31:44;100018.00;;;0.52;91.66
59055;BME280;44845;51.444;7.460;2024-01-07T06:34:14;100017.78;;;0.71;90.71
59055;BME280;44845;51.444;7.460;2024-01-07T06:36:40;100021.28;;;0.73;90.03
59055;BME280;44845;51.444;7.460;2024-01-07T06:39:08;100025.56;;;0.72;89.42
59055;BME280;44845;51.444;7.460;2024-01-07T06:41:35;100022.38;;;0.55;89.92
59055;BME280;44845;51.444;7.460;2024-01-07T06:44:02;100027.50;;;0.53;89.21
59055;BME280;44845;51.444;7.460;2024-01-07T06:46:28;100033.91;;;0.40;89.39
59055;BME280;44845;51.444;7.460;2024-01-07T06:48:53;100037.34;;;0.64;89.93
59055;BME280;44845;51.444;7.460;2024-01-07T06:51:18;100035.44;;;0.84;88.82
59055;BME280;44845;51.444;7.460;2024-01-07T06:53:44;100049.53;;;0.68;87.94
59055;BME280;44845;51.444;7.460;2024-01-07T06:56:09;100041.91;;;0.97;87.53
59055;BME280;44845;51.444;7.460;2024-01-07T06:58:34;100050.72;;;0.78;87.97
59055;BME280;44845;51.444;7.460;2024-01-07T07:01:00;100056.59;;;0.74;87.27
59055;BME280;44845;51.444;7.460;2024-01-07T07:03:25;100057.88;;;0.61;88.36
59055;BME280;44845;51.444;7.460;2024-01-07T07:05:50;100064.91;;;0.65;89.15
59055;BME280;44845;51.444;7.460;2024-01-07T07:08:17;100077.16;;;0.95;88.09
59055;BME280;44845;51.444;7.460;2024-01-07T07:10:42;100072.59;;;0.88;86.79
59055;BME280;44845;51.444;7.460;2024-01-07T07:13:07;100075.88;;;0.84;87.66
59055;BME280;44845;51.444;7.460;2024-01-07T07:15:34;100077.38;;;0.77;87.24
59055;BME280;44845;51.444;7.460;2024-01-07T07:17:59;100078.69;;;0.90;87.52
59055;BME280;44845;51.444;7.460;2024-01-07T07:20:24;100082.13;;;1.15;86.40
59055;BME280;44845;51.444;7.460;2024-01-07T07:22:50;100081.91;;;1.09;85.68
59055;BME280;44845;51.444;7.460;2024-01-07T07:25:15;100086.88;;;1.03;85.67
59055;BME280;44845;51.444;7.460;2024-01-07T07:27:41;100101.22;;;0.94;86.31
59055;BME280;44845;51.444;7.460;2024-01-07T07:30:07;100095.31;;;0.98;84.97
59055;BME280;44845;51.444;7.460;2024-01-07T07:32:32;100107.44;;;0.99;85.19
59055;BME280;44845;51.444;7.460;2024-01-07T07:34:57;100103.78;;;0.94;85.05
59055;BME280;44845;51.444;7.460;2024-01-07T07:37:23;100106.81;;;1.07;85.36
59055;BME280;44845;51.444;7.460;2024-01-07T07:39:48;100114.44;;;0.79;84.58
59055;BME280;44845;51.444;7.460;2024-01-07T07:42:15;100124.09;;;0.37;87.15
59055;BME280;44845;51.444;7.460;2024-01-07T07:44:40;100125.72;;;0.33;89.23
59055;BME280;44845;51.444;7.460;2024-01-07T07:47:05;100120.13;;;0.69;88.92
59055;BME280;44845;51.444;7.460;2024-01-07T07:49:33;100130.09;;;0.84;88.71
59055;BME280;44845;51.444;7.460;2024-01-07T07:51:58;100133.97;;;0.95;88.01
59055;BME280;44845;51.444;7.460;2024-01-07T07:54:24;100142.41;;;0.91;87.45
59055;BME280;44845;51.444;7.460;2024-01-07T07:56:49;100152.19;;;0.75;87.69
59055;BME280;44845;51.444;7.460;2024-01-07T07:59:14;100160.75;;;0.74;87.98
59055;BME280;44845;51.444;7.460;2024-01-07T08:01:40;100163.56;;;0.35;87.45
59055;BME280;44845;51.444;7.460;2024-01-07T08:04:05;100175.44;;;0.08;87.26
59055;BME280;44845;51.444;7.460;2024-01-07T08:06:31;100185.94;;;0.13;88.09
59055;BME280;44845;51.444;7.460;2024-01-07T08:08:56;100191.56;;;0.02;88.62
59055;BME280;44845;51.444;7.460;2024-01-07T08:11:21;100187.00;;;0.18;89.11
59055;BME280;44845;51.444;7.460;2024-01-07T08:13:47;100188.00;;;0.43;88.38
59055;BME280;44845;51.444;7.460;2024-01-07T08:16:13;100195.81;;;0.23;87.54
59055;BME280;44845;51.444;7.460;2024-01-07T08:18:38;100193.78;;;0.37;88.32
59055;BME280;44845;51.444;7.460;2024-01-07T08:21:04;100197.81;;;0.30;87.67
59055;BME280;44845;51.444;7.460;2024-01-07T08:23:29;100201.25;;;0.29;87.74
59055;BME280;44845;51.444;7.460;2024-01-07T08:25:55;100202.03;;;0.28;88.50
59055;BME280;44845;51.444;7.460;2024-01-07T08:28:21;100208.16;;;0.30;88.85
59055;BME280;44845;51.444;7.460;2024-01-07T08:30:47;100201.63;;;-0.04;87.96
59055;BME280;44845;51.444;7.460;2024-01-07T08:33:12;100220.50;;;-0.05;90.30
59055;BME280;44845;51.444;7.460;2024-01-07T08:35:38;100216.84;;;0.11;90.64
59055;BME280;44845;51.444;7.460;2024-01-07T08:38:03;100219.72;;;0.40;90.18
59055;BME280;44845;51.444;7.460;2024-01-07T08:40:30;100218.22;;;0.24;86.41
59055;BME280;44845;51.444;7.460;2024-01-07T08:42:55;100228.41;;;0.21;87.22
59055;BME280;44845;51.444;7.460;2024-01-07T08:45:20;100228.47;;;0.01;87.91
59055;BME280;44845;51.444;7.460;2024-01-07T08:47:46;100241.13;;;-0.05;88.27
59055;BME280;44845;51.444;7.460;2024-01-07T08:50:11;100244.75;;;-0.21;87.51
59055;BME280;44845;51.444;7.460;2024-01-07T08:52:37;100241.22;;;-0.24;87.21
59055;BME280;44845;51.444;7.460;2024-01-07T08:55:03;100241.28;;;-0.22;88.14
59055;BME280;44845;51.444;7.460;2024-01-07T08:57:31;100244.66;;;-0.03;88.15
59055;BME280;44845;51.444;7.460;2024-01-07T08:59:56;100249.25;;;0.04;86.30
59055;BME280;44845;51.444;7.460;2024-01-07T09:02:21;100255.88;;;0.19;86.78
59055;BME280;44845;51.444;7.460;2024-01-07T09:04:47;100257.59;;;-0.02;84.92
59055;BME280;44845;51.444;7.460;2024-01-07T09:07:12;100260.22;;;-0.21;85.59
59055;BME280;44845;51.444;7.460;2024-01-07T09:09:37;100259.59;;;-0.16;86.10
59055;BME280;44845;51.444;7.460;2024-01-07T09:12:03;100263.13;;;-0.14;86.78
59055;BME280;44845;51.444;7.460;2024-01-07T09:14:29;100264.47;;;-0.22;85.55
59055;BME280;44845;51.444;7.460;2024-01-07T09:16:55;100266.81;;;-0.28;86.06
59055;BME280;44845;51.444;7.460;2024-01-07T09:19:20;100280.41;;;-0.32;87.29
59055;BME280;44845;51.444;7.460;2024-01-07T09:21:45;100274.53;;;-0.28;86.24
59055;BME280;44845;51.444;7.460;2024-01-07T09:24:11;100277.97;;;-0.49;85.10
59055;BME280;44845;51.444;7.460;2024-01-07T09:26:36;100280.78;;;-0.43;85.41
59055;BME280;44845;51.444;7.460;2024-01-07T09:29:02;100287.72;;;-0.42;85.69
59055;BME280;44845;51.444;7.460;2024-01-07T09:31:28;100274.00;;;-0.41;85.04
59055;BME280;44845;51.444;7.460;2024-01-07T09:33:53;100282.56;;;-0.42;84.02
59055;BME280;44845;51.444;7.460;2024-01-07T09:36:18;100276.03;;;-0.33;84.36
59055;BME280;44845;51.444;7.460;2024-01-07T09:38:44;100287.28;;;-0.12;83.76
59055;BME280;44845;51.444;7.460;2024-01-07T09:41:09;100285.25;;;-0.19;82.88
59055;BME280;44845;51.444;7.460;2024-01-07T09:43:35;100296.22;;;-0.44;83.21
59055;BME280;44845;51.444;7.460;2024-01-07T09:46:00;100288.69;;;-0.40;84.15
59055;BME280;44845;51.444;7.460;2024-01-07T09:48:25;100289.97;;;-0.30;83.59
59055;BME280;44845;51.444;7.460;2024-01-07T09:50:52;100299.44;;;-0.49;82.96
59055;BME280;44845;51.444;7.460;2024-01-07T09:53:20;100305.22;;;-0.54;83.07
59055;BME280;44845;51.444;7.460;2024-01-07T09:58:16;100312.81;;;-0.58;82.11
59055;BME280;44845;51.444;7.460;2024-01-07T10:00:41;100305.47;;;-0.68;81.30
59055;BME280;44845;51.444;7.460;2024-01-07T10:03:07;100316.72;;;-0.46;81.75
59055;BME280;44845;51.444;7.460;2024-01-07T10:05:32;100311.44;;;-0.69;81.19
59055;BME280;44845;51.444;7.460;2024-01-07T10:07:58;100308.56;;;-0.75;81.94
59055;BME280;44845;51.444;7.460;2024-01-07T10:10:23;100309.13;;;-0.63;81.10
59055;BME280;44845;51.444;7.460;2024-01-07T10:12:48;100311.50;;;0.12;94.10
59055;BME280;44845;51.444;7.460;2024-01-07T10:15:14;100314.56;;;1.12;87.55
59055;BME280;44845;51.444;7.460;2024-01-07T10:17:41;100310.50;;;1.19;79.31
59055;BME280;44845;51.444;7.460;2024-01-07T10:20:07;100310.91;;;1.30;75.70
59055;BME280;44845;51.444;7.460;2024-01-07T10:22:37;100317.25;;;0.92;74.83
59055;BME280;44845;51.444;7.460;2024-01-07T10:25:03;100317.69;;;0.17;78.23
59055;BME280;44845;51.444;7.460;2024-01-07T10:27:29;100320.63;;;0.05;78.25
59055;BME280;44845;51.444;7.460;2024-01-07T10:29:58;100328.00;;;-0.24;78.89
59055;BME280;44845;51.444;7.460;2024-01-07T10:32:23;100322.72;;;-0.27;80.25
59055;BME280;44845;51.444;7.460;2024-01-07T10:34:50;100335.38;;;-0.32;80.30
59055;BME280;44845;51.444;7.460;2024-01-07T10:37:21;100322.16;;;-0.60;80.34
59055;BME280;44845;51.444;7.460;2024-01-07T10:39:48;100323.66;;;-0.45;80.82
59055;BME280;44845;51.444;7.460;2024-01-07T10:42:16;100330.91;;;-0.36;79.89
59055;BME280;44845;51.444;7.460;2024-01-07T10:44:43;100325.22;;;-0.29;78.41
59055;BME280;44845;51.444;7.460;2024-01-07T10:47:10;100322.44;;;-0.33;79.42
59055;BME280;44845;51.444;7.460;2024-01-07T10:49:36;100333.69;;;-0.51;78.69
59055;BME280;44845;51.444;7.460;2024-01-07T10:52:08;100344.94;;;-0.69;79.34
59055;BME280;44845;51.444;7.460;2024-01-07T10:54:35;100334.81;;;-0.84;80.14
59055;BME280;44845;51.444;7.460;2024-01-07T10:57:42;100339.66;;;-0.91;80.00
59055;BME280;44845;51.444;7.460;2024-01-07T11:00:09;100337.59;;;-0.80;80.47
59055;BME280;44845;51.444;7.460;2024-01-07T11:02:48;100349.22;;;-0.88;80.01
59055;BME280;44845;51.444;7.460;2024-01-07T11:05:31;100346.25;;;-0.77;80.45
59055;BME280;44845;51.444;7.460;2024-01-07T11:08:18;100346.25;;;-0.77;78.62
59055;BME280;44845;51.444;7.460;2024-01-07T11:10:55;100345.09;;;-0.84;79.86
59055;BME280;44845;51.444;7.460;2024-01-07T11:13:38;100349.53;;;-0.82;79.02
59055;BME280;44845;51.444;7.460;2024-01-07T11:16:07;100350.41;;;-0.99;78.47
59055;BME280;44845;51.444;7.460;2024-01-07T11:18:38;100353.88;;;-0.99;78.71
59055;BME280;44845;51.444;7.460;2024-01-07T11:21:05;100354.25;;;-0.91;78.23
59055;BME280;44845;51.444;7.460;2024-01-07T11:23:35;100356.50;;;-0.97;78.34
59055;BME280;44845;51.444;7.460;2024-01-07T11:26:05;100358.28;;;-0.96;77.28
59055;BME280;44845;51.444;7.460;2024-01-07T11:31:07;100363.34;;;-0.80;76.97
59055;BME280;44845;51.444;7.460;2024-01-07T11:33:36;100359.34;;;-0.73;75.83
59055;BME280;44845;51.444;7.460;2024-01-07T11:36:04;100383.72;;;-1.03;75.77
59055;BME280;44845;51.444;7.460;2024-01-07T11:38:30;100367.75;;;-0.95;77.41
59055;BME280;44845;51.444;7.460;2024-01-07T11:40:56;100371.16;;;-0.96;76.26
59055;BME280;44845;51.444;7.460;2024-01-07T11:43:22;100369.22;;;-1.00;76.14
59055;BME280;44845;51.444;7.460;2024-01-07T11:45:49;100365.84;;;-0.99;75.85
59055;BME280;44845;51.444;7.460;2024-01-07T11:48:15;100361.97;;;-0.91;76.83
59055;BME280;44845;51.444;7.460;2024-01-07T11:50:41;100369.97;;;-0.85;76.76
59055;BME280;44845;51.444;7.460;2024-01-07T11:53:06;100373.81;;;-0.76;75.03
59055;BME280;44845;51.444;7.460;2024-01-07T11:55:32;100383.38;;;-0.92;75.94
59055;BME280;44845;51.444;7.460;2024-01-07T11:58:01;100386.03;;;-1.09;76.41
59055;BME280;44845;51.444;7.460;2024-01-07T12:00:27;100388.06;;;-1.20;75.67
59055;BME280;44845;51.444;7.460;2024-01-07T12:02:52;100388.66;;;-1.26;76.16
59055;BME280;44845;51.444;7.460;2024-01-07T12:05:18;100378.50;;;-1.22;76.13
59055;BME280;44845;51.444;7.460;2024-01-07T12:07:44;100382.41;;;-0.94;75.33
59055;BME280;44845;51.444;7.460;2024-01-07T12:10:09;100378.81;;;-0.80;75.58
59055;BME280;44845;51.444;7.460;2024-01-07T12:12:42;100395.00;;;-0.44;76.87
59055;BME280;44845;51.444;7.460;2024-01-07T12:15:08;100386.00;;;-0.72;73.57
59055;BME280;44845;51.444;7.460;2024-01-07T12:17:33;100394.69;;;-0.88;74.50
59055;BME280;44845;51.444;7.460;2024-01-07T12:20:00;100401.31;;;-1.12;73.74
59055;BME280;44845;51.444;7.460;2024-01-07T12:22:27;100398.44;;;-1.00;73.16
59055;BME280;44845;51.444;7.460;2024-01-07T12:25:22;100395.88;;;-1.18;72.61
59055;BME280;44845;51.444;7.460;2024-01-07T12:27:49;100398.38;;;-1.02;74.70
59055;BME280;44845;51.444;7.460;2024-01-07T12:30:20;100394.69;;;-0.88;73.44
59055;BME280;44845;51.444;7.460;2024-01-07T12:32:46;100397.25;;;-0.88;73.68
59055;BME280;44845;51.444;7.460;2024-01-07T12:35:11;100396.00;;;-0.78;73.56
59055;BME280;44845;51.444;7.460;2024-01-07T12:37:37;100390.28;;;-0.91;72.08
59055;BME280;44845;51.444;7.460;2024-01-07T12:40:03;100408.38;;;-1.08;71.85
59055;BME280;44845;51.444;7.460;2024-01-07T12:42:29;100399.69;;;-1.28;73.22
59055;BME280;44845;51.444;7.460;2024-01-07T12:44:54;100408.44;;;-1.25;73.48
59055;BME280;44845;51.444;7.460;2024-01-07T12:47:20;100414.53;;;-1.22;72.46
59055;BME280;44845;51.444;7.460;2024-01-07T12:49:45;100415.69;;;-1.34;73.83
59055;BME280;44845;51.444;7.460;2024-01-07T12:52:10;100415.97;;;-1.11;73.68
59055;BME280;44845;51.444;7.460;2024-01-07T12:54:37;100427.44;;;-1.04;73.00
59055;BME280;44845;51.444;7.460;2024-01-07T12:57:03;100426.34;;;-0.91;72.14
59055;BME280;44845;51.444;7.460;2024-01-07T12:59:29;100438.41;;;-0.90;69.93
59055;BME280;44845;51.444;7.460;2024-01-07T13:01:54;100426.91;;;-0.78;70.52